createdAt,value
2019-04-29T00:00:34.670Z,51.28
2019-04-29T00:01:38.182Z,51.34
2019-04-29T00:02:40.542Z,51.31
2019-04-29T00:03:42.763Z,51.30
2019-04-29T00:04:45.210Z,51.33
2019-04-29T00:05:47.387Z,51.23
2019-04-29T00:06:49.601Z,51.24
2019-04-29T00:07:51.813Z,51.32
2019-04-29T00:08:54.053Z,51.22
2019-04-29T00:09:56.252Z,51.31
2019-04-29T00:10:58.466Z,51.19
2019-04-29T00:12:00.673Z,51.20
2019-04-29T00:13:04.692Z,51.29
2019-04-29T00:14:06.899Z,51.27
2019-04-29T00:15:22.571Z,51.31
2019-04-29T00:16:40.353Z,51.30
2019-04-29T00:17:52.133Z,51.29
2019-04-29T00:19:22.165Z,51.13
2019-04-29T00:20:46.336Z,51.18
2019-04-29T00:21:48.880Z,51.29
2019-04-29T00:22:51.167Z,51.26
2019-04-29T00:24:03.710Z,51.27
2019-04-29T00:24:57.362Z,51.18
2019-04-29T00:25:59.803Z,51.17
2019-04-29T00:27:02.018Z,51.13
2019-04-29T00:28:04.257Z,51.19
2019-04-29T00:29:06.477Z,51.22
2019-04-29T00:30:10.783Z,51.26
2019-04-29T00:31:13.027Z,51.08
2019-04-29T00:32:15.237Z,51.20
2019-04-29T00:33:17.550Z,51.22
2019-04-29T00:34:20.016Z,51.09
2019-04-29T00:35:22.232Z,51.22
2019-04-29T00:36:26.173Z,51.21
2019-04-29T00:37:50.452Z,51.22
2019-04-29T00:39:14.110Z,51.23
2019-04-29T00:40:41.994Z,51.21
2019-04-29T00:42:01.569Z,51.23
2019-04-29T00:43:28.688Z,51.19
2019-04-29T00:44:30.930Z,51.21
2019-04-29T00:45:33.274Z,51.19
2019-04-29T00:46:35.484Z,51.17
2019-04-29T00:47:37.717Z,51.16
2019-04-29T00:48:39.930Z,51.12
2019-04-29T00:49:42.154Z,51.14
2019-04-29T00:50:44.376Z,51.13
2019-04-29T00:51:46.578Z,51.17
2019-04-29T00:52:48.852Z,51.16
2019-04-29T00:53:52.657Z,51.09
2019-04-29T00:55:00.946Z,51.11
2019-04-29T00:56:04.074Z,51.20
2019-04-29T00:57:06.300Z,51.21
2019-04-29T00:58:08.497Z,51.09
2019-04-29T00:59:11.903Z,51.11
2019-04-29T01:00:18.976Z,51.13
2019-04-29T01:01:24.259Z,51.14
2019-04-29T01:02:26.482Z,51.15
2019-04-29T01:03:28.690Z,51.16
2019-04-29T01:04:30.901Z,51.17
2019-04-29T01:05:33.148Z,51.16
2019-04-29T01:06:35.391Z,51.18
2019-04-29T01:07:37.588Z,51.15
2019-04-29T01:08:39.794Z,51.15
2019-04-29T01:09:41.988Z,51.12
2019-04-29T01:10:44.320Z,51.18
2019-04-29T01:11:46.626Z,51.11
2019-04-29T01:12:48.830Z,51.10
2019-04-29T01:13:51.050Z,51.12
2019-04-29T01:14:53.280Z,51.16
2019-04-29T01:15:55.516Z,51.12
2019-04-29T01:16:57.729Z,51.13
2019-04-29T01:17:59.944Z,51.12
2019-04-29T01:19:03.913Z,51.12
2019-04-29T01:20:06.014Z,51.10
2019-04-29T01:21:08.330Z,51.12
2019-04-29T01:22:10.544Z,51.14
2019-04-29T01:23:12.738Z,51.12
2019-04-29T01:24:14.969Z,51.07
2019-04-29T01:25:17.194Z,51.09
2019-04-29T01:26:30.510Z,51.10
2019-04-29T01:27:38.366Z,51.03
2019-04-29T01:28:49.410Z,51.13
2019-04-29T01:29:51.842Z,51.00
2019-04-29T01:30:54.071Z,51.14
2019-04-29T01:31:56.196Z,51.07
2019-04-29T01:32:58.437Z,50.99
2019-04-29T01:34:06.517Z,51.02
2019-04-29T01:35:08.895Z,51.05
2019-04-29T01:36:45.425Z,51.05
2019-04-29T01:37:47.650Z,51.08
2019-04-29T01:38:50.570Z,51.12
2019-04-29T01:40:00.715Z,51.08
2019-04-29T01:41:09.210Z,51.05
2019-04-29T01:42:17.775Z,51.05
2019-04-29T01:43:19.966Z,50.99
2019-04-29T01:44:22.431Z,51.02
2019-04-29T01:45:24.648Z,51.05
2019-04-29T01:46:26.857Z,50.93
2019-04-29T01:47:29.065Z,51.04
2019-04-29T01:48:31.263Z,51.11
2019-04-29T01:49:33.495Z,51.04
2019-04-29T01:50:35.709Z,51.06
2019-04-29T01:51:37.966Z,51.08
2019-04-29T01:52:40.177Z,51.07
2019-04-29T01:53:42.469Z,51.04
2019-04-29T01:54:44.603Z,51.07
2019-04-29T01:55:46.806Z,51.05
2019-04-29T01:56:49.061Z,50.97
2019-04-29T01:57:51.287Z,51.08
2019-04-29T01:58:53.479Z,50.99
2019-04-29T01:59:55.695Z,51.04
2019-04-29T02:00:57.924Z,51.00
2019-04-29T02:02:00.137Z,51.00
2019-04-29T02:03:02.336Z,51.02
2019-04-29T02:04:04.563Z,51.02
2019-04-29T02:05:06.777Z,51.05
2019-04-29T02:06:09.005Z,51.02
2019-04-29T02:07:11.210Z,51.05
2019-04-29T02:08:13.444Z,51.00
2019-04-29T02:09:23.148Z,51.05
2019-04-29T02:10:30.051Z,51.07
2019-04-29T02:11:32.272Z,51.04
2019-04-29T02:12:34.487Z,50.99
2019-04-29T02:13:36.695Z,51.01
2019-04-29T02:14:38.929Z,50.98
2019-04-29T02:15:41.161Z,50.98
2019-04-29T02:16:43.368Z,50.91
2019-04-29T02:17:45.571Z,50.99
2019-04-29T02:18:47.784Z,50.93
2019-04-29T02:19:50.159Z,51.03
2019-04-29T02:20:52.365Z,50.91
2019-04-29T02:22:13.526Z,50.99
2019-04-29T02:23:30.861Z,50.96
2019-04-29T02:24:33.881Z,50.90
2019-04-29T02:25:39.165Z,50.95
2019-04-29T02:26:41.415Z,51.02
2019-04-29T02:27:43.615Z,51.00
2019-04-29T02:28:45.815Z,50.98
2019-04-29T02:29:48.029Z,50.95
2019-04-29T02:30:50.531Z,50.97
2019-04-29T02:31:52.857Z,50.96
2019-04-29T02:32:55.057Z,50.99
2019-04-29T02:33:57.264Z,50.91
2019-04-29T02:34:59.471Z,50.97
2019-04-29T02:36:01.681Z,50.96
2019-04-29T02:37:05.451Z,50.92
2019-04-29T02:38:09.618Z,50.94
2019-04-29T02:39:26.329Z,50.92
2019-04-29T02:40:35.618Z,51.00
2019-04-29T02:41:54.190Z,50.87
2019-04-29T02:43:01.303Z,50.88
2019-04-29T02:44:05.062Z,50.87
2019-04-29T02:45:11.373Z,50.93
2019-04-29T02:46:13.588Z,50.96
2019-04-29T02:47:15.832Z,51.00
2019-04-29T02:48:18.055Z,50.95
2019-04-29T02:49:20.274Z,50.89
2019-04-29T02:50:22.472Z,50.93
2019-04-29T02:51:48.554Z,50.83
2019-04-29T02:52:50.753Z,50.94
2019-04-29T02:53:52.974Z,50.96
2019-04-29T02:54:57.893Z,50.92
2019-04-29T02:56:00.390Z,50.94
2019-04-29T02:57:16.195Z,50.88
2019-04-29T02:58:27.249Z,50.98
2019-04-29T02:59:33.043Z,50.95
2019-04-29T03:00:54.186Z,50.94
2019-04-29T03:02:17.854Z,50.93
2019-04-29T03:03:26.007Z,50.96
2019-04-29T03:04:30.735Z,50.93
2019-04-29T03:05:40.032Z,50.94
2019-04-29T03:06:42.242Z,50.91
2019-04-29T03:07:44.474Z,50.90
2019-04-29T03:08:46.680Z,50.93
2019-04-29T03:09:48.879Z,50.94
2019-04-29T03:10:51.067Z,50.94
2019-04-29T03:11:53.270Z,50.91
2019-04-29T03:12:55.476Z,50.83
2019-04-29T03:13:57.666Z,50.91
2019-04-29T03:14:59.868Z,50.94
2019-04-29T03:16:03.482Z,50.94
2019-04-29T03:17:05.702Z,50.93
2019-04-29T03:18:07.885Z,50.92
2019-04-29T03:19:16.637Z,50.81
2019-04-29T03:20:27.200Z,50.87
2019-04-29T03:21:33.169Z,50.84
2019-04-29T03:22:35.498Z,50.93
2019-04-29T03:23:37.734Z,50.85
2019-04-29T03:24:39.950Z,50.87
2019-04-29T03:25:42.143Z,50.86
2019-04-29T03:26:44.336Z,50.91
2019-04-29T03:27:46.583Z,50.88
2019-04-29T03:28:48.787Z,50.83
2019-04-29T03:29:50.999Z,50.77
2019-04-29T03:30:53.206Z,50.87
2019-04-29T03:31:56.747Z,50.88
2019-04-29T03:32:58.915Z,50.88
2019-04-29T03:34:01.382Z,50.92
2019-04-29T03:35:03.713Z,50.90
2019-04-29T03:36:05.918Z,50.84
2019-04-29T03:37:08.127Z,50.93
2019-04-29T03:38:10.362Z,50.88
2019-04-29T03:39:12.565Z,50.92
2019-04-29T03:40:14.821Z,50.92
2019-04-29T03:41:17.034Z,50.87
2019-04-29T03:42:19.298Z,50.93
2019-04-29T03:43:21.524Z,50.91
2019-04-29T03:44:23.716Z,50.89
2019-04-29T03:45:25.936Z,50.86
2019-04-29T03:46:28.153Z,50.89
2019-04-29T03:47:30.326Z,50.90
2019-04-29T03:48:32.529Z,50.89
2019-04-29T03:49:34.730Z,50.87
2019-04-29T03:50:36.931Z,50.92
2019-04-29T03:51:39.174Z,50.86
2019-04-29T03:52:41.378Z,50.84
2019-04-29T03:53:43.572Z,50.93
2019-04-29T03:54:45.784Z,50.88
2019-04-29T03:55:47.969Z,50.84
2019-04-29T03:56:50.201Z,50.86
2019-04-29T03:57:52.405Z,50.87
2019-04-29T03:58:54.591Z,50.84
2019-04-29T03:59:57.171Z,50.83
2019-04-29T04:01:10.685Z,50.86
2019-04-29T04:02:41.171Z,50.88
2019-04-29T04:03:47.203Z,50.90
2019-04-29T04:05:20.554Z,50.90
2019-04-29T04:06:34.482Z,50.80
2019-04-29T04:07:52.282Z,50.80
2019-04-29T04:09:13.987Z,50.84
2019-04-29T04:10:16.176Z,50.86
2019-04-29T04:11:18.389Z,50.87
2019-04-29T04:12:20.603Z,50.86
2019-04-29T04:13:22.849Z,50.86
2019-04-29T04:14:25.060Z,50.72
2019-04-29T04:15:27.273Z,50.80
2019-04-29T04:16:48.417Z,50.79
2019-04-29T04:17:57.421Z,50.82
2019-04-29T04:19:07.225Z,50.71
2019-04-29T04:20:09.422Z,50.83
2019-04-29T04:21:11.631Z,50.80
2019-04-29T04:22:13.821Z,50.81
2019-04-29T04:23:16.018Z,50.86
2019-04-29T04:24:18.247Z,50.84
2019-04-29T04:25:20.454Z,50.77
2019-04-29T04:26:22.663Z,50.75
2019-04-29T04:27:24.863Z,50.81
2019-04-29T04:28:27.059Z,50.78
2019-04-29T04:29:29.274Z,50.71
2019-04-29T04:30:31.506Z,50.65
2019-04-29T04:31:33.802Z,50.67
2019-04-29T04:32:36.016Z,50.83
2019-04-29T04:33:38.201Z,50.81
2019-04-29T04:34:40.433Z,50.84
2019-04-29T04:35:42.642Z,50.85
2019-04-29T04:36:44.821Z,50.85
2019-04-29T04:37:47.035Z,50.82
2019-04-29T04:38:49.231Z,50.74
2019-04-29T04:39:51.456Z,50.77
2019-04-29T04:41:00.861Z,50.78
2019-04-29T04:42:03.061Z,50.82
2019-04-29T04:43:05.242Z,50.81
2019-04-29T04:44:07.437Z,50.78
2019-04-29T04:45:09.684Z,50.71
2019-04-29T04:46:11.890Z,50.82
2019-04-29T04:47:14.090Z,50.78
2019-04-29T04:48:16.309Z,50.76
2019-04-29T04:49:18.599Z,50.78
2019-04-29T04:50:20.863Z,50.82
2019-04-29T04:51:23.042Z,50.79
2019-04-29T04:52:25.243Z,50.80
2019-04-29T04:53:27.433Z,50.68
2019-04-29T04:54:31.547Z,50.76
2019-04-29T04:55:35.118Z,50.80
2019-04-29T04:56:37.314Z,50.70
2019-04-29T04:57:39.519Z,50.69
2019-04-29T04:58:41.720Z,50.74
2019-04-29T04:59:43.903Z,50.80
2019-04-29T05:00:46.115Z,50.77
2019-04-29T05:01:48.321Z,50.74
2019-04-29T05:02:50.517Z,50.77
2019-04-29T05:03:52.721Z,50.77
2019-04-29T05:04:54.917Z,50.73
2019-04-29T05:05:57.189Z,50.76
2019-04-29T05:06:59.407Z,50.77
2019-04-29T05:08:01.547Z,50.73
2019-04-29T05:09:05.704Z,50.77
2019-04-29T05:10:07.903Z,50.60
2019-04-29T05:11:10.145Z,50.64
2019-04-29T05:12:14.145Z,50.69
2019-04-29T05:13:27.316Z,50.65
2019-04-29T05:14:20.063Z,50.56
2019-04-29T05:15:22.251Z,50.61
2019-04-29T05:16:24.503Z,50.67
2019-04-29T05:17:26.691Z,50.70
2019-04-29T05:18:28.896Z,50.71
2019-04-29T05:19:31.087Z,50.71
2019-04-29T05:20:33.324Z,50.73
2019-04-29T05:21:35.579Z,50.73
2019-04-29T05:22:37.783Z,50.70
2019-04-29T05:23:41.631Z,50.66
2019-04-29T05:24:43.825Z,50.73
2019-04-29T05:25:46.035Z,50.63
2019-04-29T05:26:48.257Z,51.17
2019-04-29T05:27:50.381Z,51.25
2019-04-29T05:28:52.498Z,51.12
2019-04-29T05:29:54.692Z,51.72
2019-04-29T05:30:56.921Z,51.79
2019-04-29T05:31:59.155Z,51.87
2019-04-29T05:33:01.365Z,51.63
2019-04-29T05:34:03.591Z,51.70
2019-04-29T05:35:08.653Z,52.03
2019-04-29T05:36:45.221Z,52.14
2019-04-29T05:37:58.690Z,52.78
2019-04-29T05:39:19.844Z,52.11
2019-04-29T05:40:40.062Z,52.31
2019-04-29T05:41:42.271Z,52.03
2019-04-29T05:42:44.515Z,52.04
2019-04-29T05:43:56.727Z,51.76
2019-04-29T05:45:19.427Z,52.06
2019-04-29T05:46:30.711Z,52.07
2019-04-29T05:47:41.673Z,52.11
2019-04-29T05:48:43.909Z,52.09
2019-04-29T05:50:06.596Z,51.90
2019-04-29T05:51:32.513Z,51.95
2019-04-29T05:52:43.641Z,51.88
2019-04-29T05:53:54.677Z,52.14
2019-04-29T05:54:51.777Z,51.98
2019-04-29T05:55:53.986Z,52.09
2019-04-29T05:56:56.193Z,52.12
2019-04-29T05:58:11.461Z,52.03
2019-04-29T05:59:14.003Z,52.16
2019-04-29T06:00:18.882Z,52.13
2019-04-29T06:01:22.908Z,52.05
2019-04-29T06:02:33.162Z,51.96
2019-04-29T06:03:28.955Z,51.89
2019-04-29T06:04:31.184Z,51.97
2019-04-29T06:05:33.381Z,52.10
2019-04-29T06:06:35.622Z,52.10
2019-04-29T06:07:37.805Z,52.00
2019-04-29T06:08:40.634Z,52.04
2019-04-29T06:09:42.992Z,52.02
2019-04-29T06:10:45.193Z,52.06
2019-04-29T06:11:47.401Z,52.07
2019-04-29T06:12:49.612Z,51.92
2019-04-29T06:13:51.819Z,52.00
2019-04-29T06:14:54.040Z,52.10
2019-04-29T06:15:56.254Z,52.07
2019-04-29T06:17:02.884Z,52.01
2019-04-29T06:18:02.317Z,52.07
2019-04-29T06:19:06.038Z,51.99
2019-04-29T06:20:08.389Z,51.99
2019-04-29T06:21:10.590Z,51.98
2019-04-29T06:22:12.804Z,52.06
2019-04-29T06:23:14.998Z,51.99
2019-04-29T06:24:17.198Z,52.05
2019-04-29T06:25:19.442Z,52.00
2019-04-29T06:26:21.639Z,51.91
2019-04-29T06:27:23.849Z,51.98
2019-04-29T06:28:28.043Z,52.05
2019-04-29T06:29:29.895Z,51.92
2019-04-29T06:30:32.135Z,51.87
2019-04-29T06:31:34.339Z,51.92
2019-04-29T06:32:36.566Z,51.91
2019-04-29T06:33:38.773Z,51.99
2019-04-29T06:34:41.810Z,51.97
2019-04-29T06:35:47.428Z,51.91
2019-04-29T06:36:47.975Z,51.96
2019-04-29T06:37:50.163Z,52.01
2019-04-29T06:38:52.379Z,51.95
2019-04-29T06:39:54.575Z,52.08
2019-04-29T06:40:56.813Z,52.05
2019-04-29T06:41:59.012Z,52.06
2019-04-29T06:43:01.226Z,51.97
2019-04-29T06:44:06.699Z,52.04
2019-04-29T06:45:07.321Z,52.00
2019-04-29T06:46:09.563Z,51.99
2019-04-29T06:47:11.758Z,52.05
2019-04-29T06:48:13.974Z,52.01
2019-04-29T06:49:16.188Z,52.11
2019-04-29T06:50:18.394Z,52.24
2019-04-29T06:51:20.612Z,52.55
2019-04-29T06:52:23.908Z,52.40
2019-04-29T06:53:26.274Z,52.41
2019-04-29T06:54:28.471Z,52.20
2019-04-29T06:55:30.670Z,52.53
2019-04-29T06:56:32.888Z,52.71
2019-04-29T06:57:35.094Z,52.85
2019-04-29T06:58:38.580Z,53.12
2019-04-29T06:59:43.009Z,52.75
2019-04-29T07:00:44.672Z,52.72
2019-04-29T07:01:46.874Z,52.79
2019-04-29T07:02:49.902Z,53.08
2019-04-29T07:03:55.733Z,53.53
2019-04-29T07:04:56.830Z,53.25
2019-04-29T07:05:59.034Z,53.08
2019-04-29T07:07:01.258Z,53.42
2019-04-29T07:08:03.455Z,53.18
2019-04-29T07:09:06.511Z,53.47
2019-04-29T07:10:08.715Z,53.11
2019-04-29T07:11:10.935Z,53.48
2019-04-29T07:12:13.991Z,53.87
2019-04-29T07:13:18.094Z,53.76
2019-04-29T07:14:20.191Z,53.77
2019-04-29T07:15:22.414Z,53.75
2019-04-29T07:16:26.814Z,53.60
2019-04-29T07:17:28.491Z,53.59
2019-04-29T07:18:30.672Z,53.69
2019-04-29T07:19:32.860Z,53.86
2019-04-29T07:20:37.024Z,53.58
2019-04-29T07:21:41.868Z,53.61
2019-04-29T07:22:42.802Z,53.85
2019-04-29T07:23:45.016Z,53.81
2019-04-29T07:24:47.271Z,53.65
2019-04-29T07:25:49.470Z,53.55
2019-04-29T07:26:51.674Z,53.74
2019-04-29T07:27:53.892Z,53.64
2019-04-29T07:28:56.115Z,53.77
2019-04-29T07:30:01.841Z,53.92
2019-04-29T07:31:03.082Z,53.94
2019-04-29T07:32:09.471Z,53.97
2019-04-29T07:33:09.411Z,53.74
2019-04-29T07:34:11.633Z,53.90
2019-04-29T07:35:13.825Z,53.79
2019-04-29T07:36:18.657Z,53.76
2019-04-29T07:37:19.893Z,53.87
2019-04-29T07:38:22.132Z,53.85
2019-04-29T07:39:26.705Z,53.78
2019-04-29T07:40:28.302Z,53.83
2019-04-29T07:41:30.511Z,53.77
2019-04-29T07:42:33.380Z,53.78
2019-04-29T07:43:38.653Z,53.88
2019-04-29T07:44:48.761Z,53.73
2019-04-29T07:46:19.645Z,53.63
2019-04-29T07:47:24.961Z,53.61
2019-04-29T07:48:25.721Z,53.50
2019-04-29T07:49:27.939Z,53.49
2019-04-29T07:50:30.174Z,53.44
2019-04-29T07:51:34.780Z,53.47
2019-04-29T07:52:36.243Z,53.51
2019-04-29T07:53:45.076Z,53.55
2019-04-29T07:54:42.349Z,53.60
2019-04-29T07:55:44.577Z,53.62
2019-04-29T07:56:46.803Z,53.54
2019-04-29T07:57:52.135Z,53.53
2019-04-29T07:58:52.885Z,53.54
2019-04-29T07:59:55.087Z,53.47
2019-04-29T08:00:57.308Z,53.56
2019-04-29T08:02:00.154Z,53.56
2019-04-29T08:03:03.351Z,53.62
2019-04-29T08:04:05.555Z,53.57
2019-04-29T08:05:07.763Z,53.63
2019-04-29T08:06:09.964Z,53.81
2019-04-29T08:07:12.251Z,53.75
2019-04-29T08:08:16.560Z,53.66
2019-04-29T08:09:18.291Z,53.57
2019-04-29T08:10:23.545Z,53.68
2019-04-29T08:11:24.346Z,53.65
2019-04-29T08:12:26.563Z,53.72
2019-04-29T08:13:28.763Z,53.67
2019-04-29T08:14:30.962Z,53.80
2019-04-29T08:15:36.813Z,53.65
2019-04-29T08:16:37.031Z,53.61
2019-04-29T08:17:39.262Z,53.72
2019-04-29T08:18:41.466Z,53.69
2019-04-29T08:19:43.677Z,53.58
2019-04-29T08:20:45.893Z,53.90
2019-04-29T08:21:49.831Z,53.92
2019-04-29T08:22:52.030Z,54.17
2019-04-29T08:23:57.095Z,53.85
2019-04-29T08:24:59.298Z,53.83
2019-04-29T08:26:02.557Z,54.08
2019-04-29T08:27:05.368Z,53.96
2019-04-29T08:28:07.597Z,53.77
2019-04-29T08:29:09.800Z,53.81
2019-04-29T08:30:12.788Z,53.87
2019-04-29T08:31:16.542Z,54.27
2019-04-29T08:32:18.942Z,54.15
2019-04-29T08:33:21.160Z,54.03
2019-04-29T08:34:24.366Z,53.95
2019-04-29T08:35:26.689Z,54.22
2019-04-29T08:36:30.643Z,53.96
2019-04-29T08:37:33.070Z,53.85
2019-04-29T08:38:38.313Z,54.17
2019-04-29T08:39:40.244Z,54.23
2019-04-29T08:40:45.218Z,54.50
2019-04-29T08:41:47.205Z,54.21
2019-04-29T08:42:55.333Z,54.07
2019-04-29T08:44:16.828Z,53.96
2019-04-29T08:45:38.998Z,54.13
2019-04-29T08:46:51.849Z,54.25
2019-04-29T08:47:54.621Z,54.06
2019-04-29T08:48:56.981Z,53.91
2019-04-29T08:50:00.903Z,53.90
2019-04-29T08:51:03.094Z,53.82
2019-04-29T08:52:05.493Z,53.99
2019-04-29T08:53:07.743Z,54.21
2019-04-29T08:54:09.968Z,54.08
2019-04-29T08:55:12.173Z,54.15
2019-04-29T08:56:14.400Z,54.02
2019-04-29T08:57:16.607Z,54.12
2019-04-29T08:58:18.822Z,53.93
2019-04-29T08:59:24.659Z,54.01
2019-04-29T09:00:24.969Z,53.95
2019-04-29T09:01:29.356Z,54.07
2019-04-29T09:02:35.083Z,54.05
2019-04-29T09:03:40.572Z,54.24
2019-04-29T09:04:52.532Z,53.90
2019-04-29T09:05:46.231Z,53.95
2019-04-29T09:06:46.472Z,54.15
2019-04-29T09:07:52.386Z,54.11
2019-04-29T09:08:55.409Z,54.11
2019-04-29T09:10:01.631Z,53.98
2019-04-29T09:11:00.551Z,54.02
2019-04-29T09:12:02.764Z,54.09
2019-04-29T09:13:04.980Z,54.25
2019-04-29T09:14:07.215Z,54.24
2019-04-29T09:15:09.519Z,54.01
2019-04-29T09:16:11.752Z,54.06
2019-04-29T09:17:20.660Z,54.15
2019-04-29T09:18:17.913Z,54.08
2019-04-29T09:19:21.825Z,54.07
2019-04-29T09:20:24.014Z,54.16
2019-04-29T09:21:26.224Z,54.17
2019-04-29T09:22:30.023Z,54.05
2019-04-29T09:23:32.875Z,54.33
2019-04-29T09:24:35.583Z,54.02
2019-04-29T09:26:02.987Z,53.92
2019-04-29T09:27:09.502Z,54.05
2019-04-29T09:28:16.096Z,54.20
2019-04-29T09:29:31.874Z,54.18
2019-04-29T09:30:34.082Z,54.21
2019-04-29T09:31:36.287Z,54.19
2019-04-29T09:32:39.976Z,54.33
2019-04-29T09:33:44.078Z,54.25
2019-04-29T09:34:46.181Z,54.18
2019-04-29T09:35:48.398Z,54.01
2019-04-29T09:36:50.600Z,54.12
2019-04-29T09:37:53.767Z,54.13
2019-04-29T09:38:56.643Z,54.28
2019-04-29T09:39:58.891Z,54.14
2019-04-29T09:41:20.028Z,54.08
2019-04-29T09:42:50.152Z,54.15
2019-04-29T09:44:15.794Z,54.17
2019-04-29T09:45:36.983Z,54.30
2019-04-29T09:46:39.278Z,54.33
2019-04-29T09:47:41.477Z,54.44
2019-04-29T09:48:43.677Z,54.27
2019-04-29T09:49:45.889Z,54.29
2019-04-29T09:50:48.115Z,54.25
2019-04-29T09:51:50.318Z,54.33
2019-04-29T09:52:52.522Z,54.42
2019-04-29T09:53:54.728Z,54.38
2019-04-29T09:54:59.589Z,54.33
2019-04-29T09:56:00.819Z,54.33
2019-04-29T09:57:03.047Z,54.35
2019-04-29T09:58:05.251Z,54.36
2019-04-29T09:59:26.492Z,54.23
2019-04-29T10:00:50.453Z,54.29
2019-04-29T10:02:00.188Z,54.18
2019-04-29T10:03:07.415Z,54.34
2019-04-29T10:04:34.522Z,54.27
2019-04-29T10:05:40.062Z,54.27
2019-04-29T10:06:42.877Z,54.30
2019-04-29T10:07:45.093Z,54.27
2019-04-29T10:08:47.299Z,54.22
2019-04-29T10:09:56.925Z,54.28
2019-04-29T10:10:53.364Z,54.24
2019-04-29T10:11:55.610Z,54.18
2019-04-29T10:12:57.800Z,54.21
2019-04-29T10:14:00.011Z,54.19
2019-04-29T10:15:02.308Z,54.17
2019-04-29T10:16:20.435Z,54.15
2019-04-29T10:17:57.045Z,54.19
2019-04-29T10:19:13.732Z,54.30
2019-04-29T10:20:33.519Z,54.18
2019-04-29T10:21:35.771Z,54.29
2019-04-29T10:22:37.981Z,54.18
2019-04-29T10:23:40.387Z,54.15
2019-04-29T10:24:42.603Z,54.15
2019-04-29T10:25:44.864Z,54.21
2019-04-29T10:26:47.070Z,54.26
2019-04-29T10:27:49.282Z,54.12
2019-04-29T10:28:55.903Z,54.15
2019-04-29T10:29:58.100Z,54.13
2019-04-29T10:31:00.310Z,54.08
2019-04-29T10:32:06.892Z,54.17
2019-04-29T10:33:06.756Z,54.26
2019-04-29T10:34:09.783Z,54.16
2019-04-29T10:35:12.115Z,54.21
2019-04-29T10:36:15.995Z,53.99
2019-04-29T10:37:18.235Z,53.97
2019-04-29T10:38:20.443Z,53.96
2019-04-29T10:39:42.349Z,53.89
2019-04-29T10:41:02.327Z,53.85
2019-04-29T10:42:05.396Z,53.79
2019-04-29T10:43:38.934Z,53.64
2019-04-29T10:45:00.070Z,53.65
2019-04-29T10:46:23.794Z,53.55
2019-04-29T10:47:50.963Z,53.46
2019-04-29T10:48:59.092Z,53.43
2019-04-29T10:50:04.956Z,53.43
2019-04-29T10:51:08.929Z,53.39
2019-04-29T10:52:11.136Z,53.38
2019-04-29T10:53:15.601Z,53.33
2019-04-29T10:54:17.410Z,53.33
2019-04-29T10:55:20.725Z,53.31
2019-04-29T10:56:23.027Z,53.31
2019-04-29T10:57:25.237Z,53.25
2019-04-29T10:58:30.447Z,53.24
2019-04-29T10:59:36.045Z,53.23
2019-04-29T11:00:45.898Z,53.21
2019-04-29T11:02:08.989Z,53.20
2019-04-29T11:03:06.203Z,53.21
2019-04-29T11:04:08.920Z,53.17
2019-04-29T11:05:30.132Z,53.16
2019-04-29T11:06:38.368Z,53.12
2019-04-29T11:07:40.830Z,53.14
2019-04-29T11:09:01.363Z,53.09
2019-04-29T11:10:08.571Z,53.10
2019-04-29T11:11:22.752Z,53.29
2019-04-29T11:12:17.508Z,53.35
2019-04-29T11:13:19.731Z,53.27
2019-04-29T11:14:24.677Z,53.20
2019-04-29T11:15:32.654Z,53.24
2019-04-29T11:16:46.104Z,53.24
2019-04-29T11:17:39.540Z,53.20
2019-04-29T11:18:42.378Z,53.20
2019-04-29T11:19:44.607Z,53.16
2019-04-29T11:20:48.787Z,53.12
2019-04-29T11:21:50.692Z,53.07
2019-04-29T11:22:58.847Z,53.07
2019-04-29T11:24:14.125Z,53.05
2019-04-29T11:25:40.464Z,53.04
2019-04-29T11:27:11.642Z,53.03
2019-04-29T11:28:08.087Z,53.03
2019-04-29T11:29:10.299Z,53.00
2019-04-29T11:30:15.655Z,53.03
2019-04-29T11:31:19.350Z,52.97
2019-04-29T11:32:34.946Z,52.97
2019-04-29T11:33:59.144Z,52.97
2019-04-29T11:35:24.539Z,52.95
2019-04-29T11:36:28.734Z,52.89
2019-04-29T11:37:30.947Z,52.86
2019-04-29T11:38:37.944Z,52.84
2019-04-29T11:39:37.125Z,52.83
2019-04-29T11:40:43.473Z,52.84
2019-04-29T11:41:44.973Z,52.84
2019-04-29T11:42:47.212Z,52.82
2019-04-29T11:43:51.085Z,52.82
2019-04-29T11:44:57.221Z,52.79
2019-04-29T11:45:57.203Z,52.79
2019-04-29T11:46:59.434Z,52.79
2019-04-29T11:48:01.770Z,52.73
2019-04-29T11:49:04.798Z,52.74
2019-04-29T11:50:14.487Z,52.73
2019-04-29T11:51:34.296Z,52.72
2019-04-29T11:52:34.123Z,52.71
2019-04-29T11:53:36.325Z,52.64
2019-04-29T11:54:38.540Z,52.64
2019-04-29T11:55:43.414Z,52.67
2019-04-29T11:56:44.604Z,52.61
2019-04-29T11:57:54.543Z,52.62
2019-04-29T11:59:03.226Z,52.58
2019-04-29T12:00:23.702Z,52.61
2019-04-29T12:01:39.148Z,52.57
2019-04-29T12:02:45.930Z,52.58
2019-04-29T12:03:51.477Z,52.55
2019-04-29T12:04:59.112Z,52.51
2019-04-29T12:06:05.160Z,52.53
2019-04-29T12:07:07.318Z,52.57
2019-04-29T12:08:15.995Z,52.52
2019-04-29T12:09:13.377Z,52.45
2019-04-29T12:10:15.583Z,52.45
2019-04-29T12:11:17.840Z,52.45
2019-04-29T12:12:21.618Z,52.37
2019-04-29T12:13:31.091Z,52.41
2019-04-29T12:14:51.974Z,52.35
2019-04-29T12:16:02.552Z,52.35
2019-04-29T12:17:22.409Z,52.41
2019-04-29T12:18:28.283Z,52.36
2019-04-29T12:19:32.697Z,52.39
2019-04-29T12:20:54.399Z,52.35
2019-04-29T12:21:56.611Z,52.35
2019-04-29T12:22:58.820Z,52.33
2019-04-29T12:24:02.634Z,52.26
2019-04-29T12:25:04.833Z,52.29
2019-04-29T12:26:08.049Z,52.25
2019-04-29T12:27:14.820Z,52.28
2019-04-29T12:28:19.133Z,52.27
2019-04-29T12:29:19.769Z,52.23
2019-04-29T12:30:24.032Z,52.25
2019-04-29T12:31:49.417Z,52.15
2019-04-29T12:32:56.775Z,52.23
2019-04-29T12:34:16.768Z,52.13
2019-04-29T12:35:30.290Z,52.18
2019-04-29T12:36:36.775Z,52.15
2019-04-29T12:37:54.282Z,52.16
2019-04-29T12:39:42.372Z,52.13
2019-04-29T12:40:50.176Z,52.11
2019-04-29T12:42:16.308Z,52.12
2019-04-29T12:43:43.691Z,52.15
2019-04-29T12:44:58.698Z,52.10
2019-04-29T12:46:10.233Z,52.06
2019-04-29T12:47:32.209Z,52.08
2019-04-29T12:48:34.451Z,52.05
2019-04-29T12:49:36.644Z,52.02
2019-04-29T12:50:38.837Z,52.05
2019-04-29T12:51:42.636Z,52.04
2019-04-29T12:52:44.840Z,52.04
2019-04-29T12:53:47.082Z,52.04
2019-04-29T12:54:49.284Z,52.03
2019-04-29T12:55:53.670Z,52.04
2019-04-29T12:56:56.033Z,52.06
2019-04-29T12:57:58.231Z,52.02
2019-04-29T12:59:01.837Z,51.94
2019-04-29T13:00:07.516Z,52.03
2019-04-29T13:01:50.151Z,51.99
2019-04-29T13:02:55.637Z,52.01
2019-04-29T13:04:28.628Z,51.93
2019-04-29T13:05:57.927Z,51.98
2019-04-29T13:07:06.990Z,51.94
2019-04-29T13:08:21.995Z,51.96
2019-04-29T13:09:34.799Z,51.90
2019-04-29T13:10:45.520Z,51.94
2019-04-29T13:11:49.435Z,51.91
2019-04-29T13:12:51.572Z,51.91
2019-04-29T13:13:56.778Z,51.89
2019-04-29T13:15:12.553Z,51.91
2019-04-29T13:16:22.893Z,51.90
2019-04-29T13:17:34.781Z,51.89
2019-04-29T13:18:55.743Z,51.89
2019-04-29T13:20:07.407Z,51.86
2019-04-29T13:21:10.297Z,51.84
2019-04-29T13:22:15.506Z,51.82
2019-04-29T13:23:19.539Z,51.82
2019-04-29T13:24:24.855Z,51.87
2019-04-29T13:25:26.596Z,51.87
2019-04-29T13:26:28.753Z,51.87
2019-04-29T13:27:31.510Z,51.85
2019-04-29T13:28:34.748Z,51.80
2019-04-29T13:29:37.649Z,51.80
2019-04-29T13:30:43.264Z,51.85
2019-04-29T13:31:43.746Z,51.83
2019-04-29T13:32:45.951Z,51.83
2019-04-29T13:33:50.884Z,51.86
2019-04-29T13:35:05.003Z,51.79
2019-04-29T13:36:04.971Z,51.77
2019-04-29T13:37:08.212Z,51.77
2019-04-29T13:38:11.039Z,51.77
2019-04-29T13:39:13.284Z,51.77
2019-04-29T13:40:15.509Z,51.78
2019-04-29T13:41:23.367Z,51.77
2019-04-29T13:42:21.608Z,51.72
2019-04-29T13:43:25.858Z,51.72
2019-04-29T13:44:27.692Z,51.74
2019-04-29T13:45:37.405Z,51.72
2019-04-29T13:46:58.553Z,51.74
2019-04-29T13:48:25.137Z,51.75
2019-04-29T13:49:49.068Z,51.71
2019-04-29T13:50:57.273Z,51.70
2019-04-29T13:52:00.046Z,51.69
2019-04-29T13:53:02.394Z,51.70
2019-04-29T13:54:06.089Z,51.72
2019-04-29T13:55:17.640Z,51.68
2019-04-29T13:56:31.943Z,51.67
2019-04-29T13:57:16.475Z,51.68
2019-04-29T13:58:22.251Z,51.68
2019-04-29T13:59:31.468Z,51.70
2019-04-29T14:00:46.549Z,51.67
2019-04-29T14:02:01.382Z,51.69
2019-04-29T14:03:02.178Z,51.66
2019-04-29T14:04:14.280Z,51.62